Auchterhouse, United Kingdom

11:10 PM GMT on December 17, 2014 (GMT +0000)
Kirkton of Auchterhouse | Change Station
CLOSE
Current Station
Personal Weather Station
Location: Dundee, ANGUS
Elevation: 600 ft
Nearby Weather Stations

Elev 600 ft 56.53 °N, 3.07 °W | Updated 5 minutes ago

Scattered Clouds
Scattered Clouds
38.9 °F
Feels Like 35 °F
N
5.0
Wind Variable Wind from WSW
Gusts 14.0 mph

Today
High -- | Low -- °F
--% Chance of Precip.
Yesterday
High -- | Low -- °F
Precip. -- in
8:42 AM 3:33 PM
Waning Crescent, 19% visible
Pressure 29.44 in
Visibility 6.2 miles
Clouds Scattered Clouds 3800 ft
Windchill 35 °F
Dew Point 37 °F
Humidity 92%
Rainfall 0.01 in
Snow Depth Not available.
UV 0 out of 12
Pollen Not available.
Air Quality Not available.
Flu Activity Not available.
METAR EGQL 172250Z 23004KT 9999 SCT038 05/03 Q0997 BLU

More Conditions Fewer Conditions

Pressure 29.44 in
Visibility 6.2 miles
Clouds Scattered Clouds 3800 ft
Windchill 35 °F
Dew Point 37 °F
Humidity 92%
Rainfall 0.01 in
Snow Depth Not available.
UV 0 out of 12
Pollen Not available.
Air Quality Not available.
Flu Activity Not available.
METAR EGQL 172250Z 23004KT 9999 SCT038 05/03 Q0997 BLU

More Conditions Fewer Conditions

10-Day Weather Forecast

Almanac

Astronomy

Dec. 17, 2014 Rise Set
Actual Time
Civil Twilight
Nautical Twilight
Astronomical Twilight
Moon
Length of Visible Light
Length of Day
Tomorrow will be .
, % of the Moon is Illuminated

Today's Extremes

Country Highs Country Lows

Community

WunderPhotos

Upload Photos

1,778,822 photos uploaded!

WunderBlogs® & News

Nearby

Air Quality

  Air Quality AQ Index Pollutant
Not available.

Snow Depth

Station Depth Elevation

Earthquake Activity

City Distance Mag. Time & Date
Minimum magnitude displayed is 2.5.

Coastal Water Temperatures

Place Temperature

Nearby Weather Stations